createdAt,value
2023-01-19T00:01:30.572Z,0.86
2023-01-19T00:03:57.325Z,0.42
2023-01-19T00:06:23.425Z,-0.09
2023-01-19T00:08:49.539Z,0.62
2023-01-19T00:11:18.749Z,0.37
2023-01-19T00:13:51.322Z,0.47
2023-01-19T00:16:18.407Z,0.06
2023-01-19T00:18:45.103Z,0.37
2023-01-19T00:21:11.800Z,-0.16
2023-01-19T00:23:38.066Z,-0.36
2023-01-19T00:26:04.332Z,0.11
2023-01-19T00:28:30.400Z,0.30
2023-01-19T00:30:56.491Z,0.56
2023-01-19T00:33:22.964Z,0.33
2023-01-19T00:35:52.694Z,0.44
2023-01-19T00:38:19.125Z,0.55
2023-01-19T00:40:45.171Z,0.77
2023-01-19T00:43:11.234Z,0.66
2023-01-19T00:45:37.487Z,0.70
2023-01-19T00:48:03.928Z,-0.92
2023-01-19T00:50:31.410Z,0.81
2023-01-19T00:53:00.314Z,1.00
2023-01-19T00:55:30.198Z,0.66
2023-01-19T00:57:56.939Z,0.66
2023-01-19T01:00:23.123Z,0.74
2023-01-19T01:02:51.097Z,0.76
2023-01-19T01:05:17.597Z,0.91
2023-01-19T01:07:44.591Z,0.99
2023-01-19T01:10:11.796Z,0.83
2023-01-19T01:12:38.200Z,-1.56
2023-01-19T01:15:06.435Z,0.99
2023-01-19T01:17:32.575Z,-1.24
2023-01-19T01:19:58.710Z,0.07
2023-01-19T01:22:24.811Z,-0.18
2023-01-19T01:24:50.949Z,0.52
2023-01-19T01:27:17.064Z,0.42
2023-01-19T01:29:45.803Z,0.42
2023-01-19T01:32:16.671Z,-0.67
2023-01-19T01:34:43.154Z,0.26
2023-01-19T01:37:09.217Z,0.05
2023-01-19T01:39:35.743Z,-0.20
2023-01-19T01:42:03.128Z,0.13
2023-01-19T01:44:50.773Z,0.43
2023-01-19T01:47:19.911Z,-0.08
2023-01-19T01:49:47.091Z,0.32
2023-01-19T01:52:14.463Z,0.07
2023-01-19T01:54:41.584Z,0.56
2023-01-19T01:57:11.659Z,0.31
2023-01-19T01:59:42.914Z,0.52
2023-01-19T02:02:40.121Z,0.16
2023-01-19T02:05:12.707Z,0.46
2023-01-19T02:08:03.600Z,0.10
2023-01-19T02:10:49.140Z,0.53
2023-01-19T02:13:21.359Z,0.55
2023-01-19T02:15:52.718Z,0.32
2023-01-19T02:18:21.023Z,0.49
2023-01-19T02:21:07.775Z,0.50
2023-01-19T02:23:44.952Z,0.15
2023-01-19T02:26:18.464Z,0.11
2023-01-19T02:28:48.319Z,0.19
2023-01-19T02:31:14.529Z,0.16
2023-01-19T02:33:40.900Z,0.15
2023-01-19T02:36:09.375Z,-1.80
2023-01-19T02:38:36.191Z,0.26
2023-01-19T02:41:04.093Z,0.03
2023-01-19T02:43:30.827Z,0.37
2023-01-19T02:45:57.056Z,0.17
2023-01-19T02:48:23.438Z,-0.49
2023-01-19T02:51:03.666Z,0.40
2023-01-19T02:53:39.933Z,0.13
2023-01-19T02:56:35.596Z,0.19
2023-01-19T02:59:10.657Z,0.13
2023-01-19T03:02:01.370Z,0.08
2023-01-19T03:04:51.923Z,0.15
2023-01-19T03:07:57.816Z,0.35
2023-01-19T03:10:53.143Z,0.33
2023-01-19T03:13:34.130Z,0.47
2023-01-19T03:16:13.780Z,0.37
2023-01-19T03:18:42.153Z,0.25
2023-01-19T03:21:09.248Z,-1.74
2023-01-19T03:23:37.406Z,0.25
2023-01-19T03:26:04.654Z,0.09
2023-01-19T03:28:32.003Z,0.36
2023-01-19T03:31:02.400Z,0.04
2023-01-19T03:33:31.634Z,-0.11
2023-01-19T03:36:02.937Z,0.08
2023-01-19T03:38:32.277Z,-0.05
2023-01-19T03:41:01.861Z,0.16
2023-01-19T03:43:29.846Z,0.26
2023-01-19T03:45:56.496Z,0.24
2023-01-19T03:48:23.083Z,0.20
2023-01-19T03:50:49.692Z,0.29
2023-01-19T03:53:16.758Z,-0.38
2023-01-19T03:55:45.488Z,0.14
2023-01-19T03:58:11.750Z,-0.09
2023-01-19T04:00:38.615Z,0.09
2023-01-19T04:03:06.093Z,0.11
2023-01-19T04:05:32.826Z,0.24
2023-01-19T04:07:58.910Z,0.30
2023-01-19T04:10:25.046Z,0.24
2023-01-19T04:12:57.608Z,0.22
2023-01-19T04:15:24.271Z,0.26
2023-01-19T04:17:50.315Z,0.43
2023-01-19T04:20:16.458Z,0.46
2023-01-19T04:22:42.545Z,0.30
2023-01-19T04:25:09.290Z,0.51
2023-01-19T04:27:36.356Z,-0.92
2023-01-19T04:30:03.634Z,0.63
2023-01-19T04:32:31.407Z,0.02
2023-01-19T04:34:57.748Z,0.55
2023-01-19T04:37:23.817Z,0.84
2023-01-19T04:39:49.900Z,0.65
2023-01-19T04:42:16.364Z,0.66
2023-01-19T04:44:42.493Z,0.27
2023-01-19T04:47:08.931Z,0.61
2023-01-19T04:49:37.754Z,-0.17
2023-01-19T04:52:04.759Z,0.20
2023-01-19T04:54:30.958Z,0.20
2023-01-19T04:56:57.293Z,0.31
2023-01-19T04:59:23.449Z,-1.33
2023-01-19T05:01:49.607Z,0.54
2023-01-19T05:04:15.737Z,-0.42
2023-01-19T05:06:41.767Z,0.56
2023-01-19T05:09:08.420Z,-0.39
2023-01-19T05:11:35.291Z,0.43
2023-01-19T05:14:01.325Z,0.24
2023-01-19T05:16:27.472Z,0.31
2023-01-19T05:18:53.541Z,0.60
2023-01-19T05:21:19.831Z,0.69
2023-01-19T05:23:45.930Z,0.73
2023-01-19T05:26:12.313Z,0.19
2023-01-19T05:28:38.404Z,0.82
2023-01-19T05:31:04.727Z,0.90
2023-01-19T05:33:30.932Z,-0.98
2023-01-19T05:35:56.996Z,0.98
2023-01-19T05:38:34.743Z,0.61
2023-01-19T05:41:02.091Z,0.55
2023-01-19T05:43:28.150Z,0.42
2023-01-19T05:45:54.302Z,-0.58
2023-01-19T05:48:20.483Z,0.65
2023-01-19T05:50:48.700Z,0.32
2023-01-19T05:53:15.728Z,0.09
2023-01-19T05:55:42.249Z,0.52
2023-01-19T05:58:08.334Z,0.29
2023-01-19T06:00:34.515Z,-0.08
2023-01-19T06:03:01.705Z,-0.24
2023-01-19T06:05:28.167Z,-0.18
2023-01-19T06:07:56.414Z,0.09
2023-01-19T06:10:22.598Z,0.21
2023-01-19T06:12:49.129Z,0.50
2023-01-19T06:15:15.421Z,0.44
2023-01-19T06:17:42.257Z,0.37
2023-01-19T06:20:10.390Z,0.14
2023-01-19T06:22:36.421Z,0.19
2023-01-19T06:25:02.735Z,0.10
2023-01-19T06:27:28.809Z,0.43
2023-01-19T06:29:54.861Z,-0.53
2023-01-19T06:32:21.226Z,0.65
2023-01-19T06:34:47.348Z,0.03
2023-01-19T06:37:15.460Z,0.30
2023-01-19T06:39:41.925Z,0.45
2023-01-19T06:42:08.278Z,0.26
2023-01-19T06:44:34.365Z,0.52
2023-01-19T06:47:15.185Z,0.52
2023-01-19T06:49:42.454Z,-1.51
2023-01-19T06:52:15.138Z,-0.23
2023-01-19T06:54:42.682Z,0.51
2023-01-19T06:57:10.094Z,0.48
2023-01-19T06:59:36.273Z,0.66
2023-01-19T07:02:26.207Z,0.39
2023-01-19T07:04:48.584Z,0.37
2023-01-19T07:07:15.732Z,0.34
2023-01-19T07:09:41.807Z,0.49
2023-01-19T07:12:08.630Z,-0.27
2023-01-19T07:14:34.707Z,0.63
2023-01-19T07:17:02.283Z,0.63
2023-01-19T07:19:28.381Z,0.75
2023-01-19T07:21:54.526Z,0.72
2023-01-19T07:24:21.055Z,0.66
2023-01-19T07:26:47.095Z,0.68
2023-01-19T07:29:13.258Z,0.59
2023-01-19T07:31:39.387Z,0.64
2023-01-19T07:34:06.280Z,0.73
2023-01-19T07:36:32.347Z,0.76
2023-01-19T07:38:58.384Z,0.71
2023-01-19T07:41:24.419Z,0.58
2023-01-19T07:43:50.734Z,0.73
2023-01-19T07:46:17.234Z,0.80
2023-01-19T07:48:43.958Z,0.57
2023-01-19T07:51:12.938Z,0.59
2023-01-19T07:53:41.028Z,0.74
2023-01-19T07:56:07.456Z,0.65
2023-01-19T07:58:33.490Z,0.85
2023-01-19T08:00:59.659Z,0.76
2023-01-19T08:03:25.874Z,0.88
2023-01-19T08:05:52.414Z,-1.18
2023-01-19T08:08:19.243Z,0.79
2023-01-19T08:10:49.044Z,-1.26
2023-01-19T08:13:15.101Z,0.73
2023-01-19T08:15:41.365Z,1.05
2023-01-19T08:18:09.285Z,0.97
2023-01-19T08:20:35.738Z,0.79
2023-01-19T08:23:02.285Z,0.06
2023-01-19T08:25:43.735Z,1.13
2023-01-19T08:28:11.275Z,0.29
2023-01-19T08:30:37.883Z,0.89
2023-01-19T08:33:06.507Z,1.04
2023-01-19T08:35:35.306Z,1.31
2023-01-19T08:38:01.714Z,0.67
2023-01-19T08:40:29.044Z,1.13
2023-01-19T08:43:06.985Z,0.85
2023-01-19T08:45:36.831Z,0.65
2023-01-19T08:48:04.036Z,1.18
2023-01-19T08:50:31.729Z,1.31
2023-01-19T08:52:59.413Z,1.41
2023-01-19T08:55:26.853Z,1.26
2023-01-19T08:57:54.418Z,1.40
2023-01-19T09:00:21.368Z,0.70
2023-01-19T09:02:47.807Z,1.44
2023-01-19T09:05:14.120Z,1.15
2023-01-19T09:07:40.974Z,1.05
2023-01-19T09:10:07.963Z,0.42
2023-01-19T09:12:34.065Z,1.50
2023-01-19T09:15:00.190Z,1.51
2023-01-19T09:17:26.485Z,1.11
2023-01-19T09:19:52.612Z,1.19
2023-01-19T09:22:18.687Z,1.33
2023-01-19T09:24:44.816Z,1.45
2023-01-19T09:27:10.892Z,1.04
2023-01-19T09:29:36.989Z,1.19
2023-01-19T09:32:03.289Z,1.35
2023-01-19T09:34:30.700Z,1.02
2023-01-19T09:36:56.976Z,1.13
2023-01-19T09:39:23.151Z,1.04
2023-01-19T09:42:06.104Z,1.34
2023-01-19T09:44:33.797Z,1.37
2023-01-19T09:47:02.440Z,1.34
2023-01-19T09:49:34.605Z,1.12
2023-01-19T09:52:00.840Z,1.24
2023-01-19T09:54:38.459Z,1.22
2023-01-19T09:57:09.705Z,1.20
2023-01-19T09:59:37.995Z,1.04
2023-01-19T10:02:23.031Z,1.19
2023-01-19T10:05:01.742Z,1.17
2023-01-19T10:07:35.244Z,1.20
2023-01-19T10:10:06.833Z,1.35
2023-01-19T10:12:50.189Z,1.16
2023-01-19T10:15:31.720Z,1.30
2023-01-19T10:18:10.915Z,1.22
2023-01-19T10:20:44.020Z,1.08
2023-01-19T10:23:24.847Z,1.17
2023-01-19T10:25:51.580Z,1.16
2023-01-19T10:28:22.916Z,1.35
2023-01-19T10:30:50.181Z,1.10
2023-01-19T10:33:16.348Z,1.38
2023-01-19T10:35:44.395Z,1.37
2023-01-19T10:38:12.953Z,1.20
2023-01-19T10:40:47.827Z,1.39
2023-01-19T10:43:37.144Z,1.45
2023-01-19T10:46:27.697Z,1.39
2023-01-19T10:48:54.815Z,1.05
2023-01-19T10:51:21.208Z,1.67
2023-01-19T10:54:01.632Z,1.34
2023-01-19T10:56:31.197Z,1.75
2023-01-19T10:59:02.736Z,1.84
2023-01-19T11:01:30.355Z,1.86
2023-01-19T11:04:04.799Z,0.03
2023-01-19T11:06:32.277Z,2.04
2023-01-19T11:09:15.955Z,2.15
2023-01-19T11:11:47.989Z,0.41
2023-01-19T11:14:17.672Z,2.24
2023-01-19T11:16:55.501Z,2.16
2023-01-19T11:19:30.265Z,2.30
2023-01-19T11:22:24.051Z,2.28
2023-01-19T11:24:50.349Z,0.45
2023-01-19T11:27:18.568Z,2.22
2023-01-19T11:29:50.234Z,2.52
2023-01-19T11:32:21.774Z,2.55
2023-01-19T11:34:48.894Z,0.56
2023-01-19T11:37:18.052Z,2.50
2023-01-19T11:39:49.306Z,2.27
2023-01-19T11:42:17.462Z,1.88
2023-01-19T11:45:10.048Z,2.07
2023-01-19T11:47:45.183Z,2.63
2023-01-19T11:50:23.517Z,2.42
2023-01-19T11:52:52.776Z,2.87
2023-01-19T11:55:33.352Z,2.48
2023-01-19T11:57:59.760Z,2.34
2023-01-19T12:00:34.895Z,2.87
2023-01-19T12:03:10.554Z,2.60
2023-01-19T12:05:40.638Z,2.07
2023-01-19T12:08:13.717Z,2.59
2023-01-19T12:10:42.847Z,2.51
2023-01-19T12:13:26.017Z,2.54
2023-01-19T12:16:11.674Z,2.48
2023-01-19T12:18:41.969Z,2.63
2023-01-19T12:21:08.068Z,2.36
2023-01-19T12:24:09.454Z,2.29
2023-01-19T12:26:47.903Z,2.28
2023-01-19T12:29:21.074Z,2.26
2023-01-19T12:32:12.283Z,2.50
2023-01-19T12:34:40.795Z,2.37
2023-01-19T12:37:29.765Z,2.56
2023-01-19T12:40:02.352Z,0.74
2023-01-19T12:42:28.650Z,2.62
2023-01-19T12:45:07.222Z,2.23
2023-01-19T12:47:34.094Z,2.17
2023-01-19T12:50:06.175Z,2.29
2023-01-19T12:52:35.644Z,2.50
2023-01-19T12:55:13.957Z,1.97
2023-01-19T12:58:06.204Z,2.28
2023-01-19T13:00:40.593Z,1.64
2023-01-19T13:03:18.968Z,2.47
2023-01-19T13:05:48.307Z,2.70
2023-01-19T13:08:57.272Z,2.32
2023-01-19T13:11:26.393Z,2.39
2023-01-19T13:13:59.556Z,2.59
2023-01-19T13:16:26.691Z,2.74
2023-01-19T13:18:55.132Z,2.55
2023-01-19T13:21:29.290Z,2.57
2023-01-19T13:24:04.198Z,2.57
2023-01-19T13:26:32.407Z,2.49
2023-01-19T13:29:14.618Z,2.39
2023-01-19T13:31:43.865Z,2.50
2023-01-19T13:34:16.777Z,2.26
2023-01-19T13:36:50.531Z,2.32
2023-01-19T13:39:23.571Z,2.72
2023-01-19T13:41:52.119Z,2.55
2023-01-19T13:44:26.340Z,2.49
2023-01-19T13:46:53.329Z,0.64
2023-01-19T13:49:22.055Z,2.17
2023-01-19T13:52:11.887Z,2.78
2023-01-19T13:54:55.901Z,2.47
2023-01-19T13:57:32.255Z,2.79
2023-01-19T14:00:13.667Z,2.89
2023-01-19T14:03:00.377Z,3.00
2023-01-19T14:05:32.528Z,1.11
2023-01-19T14:08:05.697Z,3.15
2023-01-19T14:10:33.942Z,3.02
2023-01-19T14:13:02.590Z,2.77
2023-01-19T14:15:31.154Z,2.66
2023-01-19T14:18:16.515Z,3.33
2023-01-19T14:20:55.845Z,3.21
2023-01-19T14:23:44.802Z,3.16
2023-01-19T14:26:44.303Z,3.41
2023-01-19T14:29:20.687Z,3.47
2023-01-19T14:32:13.139Z,2.98
2023-01-19T14:34:46.355Z,3.25
2023-01-19T14:37:15.470Z,3.51
2023-01-19T14:39:47.548Z,3.50
2023-01-19T14:42:17.578Z,3.74
2023-01-19T14:44:47.465Z,2.40
2023-01-19T14:47:36.796Z,3.67
2023-01-19T14:50:18.195Z,3.57
2023-01-19T14:52:50.021Z,2.64
2023-01-19T14:55:20.542Z,3.02
2023-01-19T14:57:47.222Z,3.33
2023-01-19T15:00:17.571Z,2.77
2023-01-19T15:02:44.759Z,3.20
2023-01-19T15:05:11.173Z,3.27
2023-01-19T15:07:39.043Z,-0.05
2023-01-19T15:10:13.200Z,3.19
2023-01-19T15:12:39.259Z,3.27
2023-01-19T15:15:06.249Z,3.03
2023-01-19T15:17:33.275Z,3.03
2023-01-19T15:19:59.301Z,3.36
2023-01-19T15:22:27.663Z,3.19
2023-01-19T15:24:56.798Z,3.04
2023-01-19T15:27:22.935Z,2.60
2023-01-19T15:29:49.047Z,3.01
2023-01-19T15:32:15.081Z,3.05
2023-01-19T15:34:41.361Z,2.90
2023-01-19T15:37:07.991Z,2.89
2023-01-19T15:39:34.165Z,3.07
2023-01-19T15:42:00.223Z,2.36
2023-01-19T15:44:26.335Z,3.25
2023-01-19T15:46:54.606Z,-1.43
2023-01-19T15:49:20.878Z,3.17
2023-01-19T15:51:46.934Z,3.24
2023-01-19T15:54:16.111Z,1.67
2023-01-19T15:56:42.217Z,3.00
2023-01-19T15:59:08.289Z,3.09
2023-01-19T16:01:34.725Z,3.18
2023-01-19T16:04:02.823Z,2.13
2023-01-19T16:06:30.027Z,1.14
2023-01-19T16:09:00.258Z,2.89
2023-01-19T16:11:28.468Z,2.92
2023-01-19T16:13:54.595Z,2.54
2023-01-19T16:16:22.822Z,2.90
2023-01-19T16:18:49.002Z,2.76
2023-01-19T16:21:15.197Z,2.91
2023-01-19T16:23:41.379Z,3.02
2023-01-19T16:26:22.647Z,2.70
2023-01-19T16:28:48.740Z,2.87
2023-01-19T16:31:15.802Z,3.05
2023-01-19T16:33:42.184Z,1.88
2023-01-19T16:36:46.655Z,3.06
2023-01-19T16:39:13.797Z,0.96
2023-01-19T16:41:39.989Z,3.11
2023-01-19T16:44:06.258Z,3.08
2023-01-19T16:46:35.251Z,2.84
2023-01-19T16:49:06.389Z,3.12
2023-01-19T16:51:32.938Z,3.16
2023-01-19T16:53:59.066Z,3.22
2023-01-19T16:56:25.122Z,2.76
2023-01-19T16:58:55.078Z,3.08
2023-01-19T17:01:24.521Z,3.23
2023-01-19T17:03:50.985Z,2.53
2023-01-19T17:06:19.433Z,2.16
2023-01-19T17:08:46.433Z,2.71
2023-01-19T17:11:19.981Z,0.62
2023-01-19T17:13:53.243Z,3.14
2023-01-19T17:16:19.953Z,2.98
2023-01-19T17:18:46.201Z,3.11
2023-01-19T17:21:13.440Z,2.82
2023-01-19T17:23:43.812Z,2.94
2023-01-19T17:26:10.236Z,2.83
2023-01-19T17:28:36.487Z,0.57
2023-01-19T17:31:29.665Z,2.86
2023-01-19T17:33:55.809Z,3.03
2023-01-19T17:36:24.462Z,2.89
2023-01-19T17:38:52.280Z,3.03
2023-01-19T17:41:21.158Z,3.03
2023-01-19T17:43:49.583Z,3.02
2023-01-19T17:46:16.835Z,3.12
2023-01-19T17:48:42.943Z,1.64
2023-01-19T17:51:12.040Z,2.69
2023-01-19T17:53:39.775Z,2.85
2023-01-19T17:56:08.555Z,2.38
2023-01-19T17:58:34.818Z,2.15
2023-01-19T18:01:14.171Z,2.86
2023-01-19T18:03:40.635Z,2.79
2023-01-19T18:06:07.165Z,1.62
2023-01-19T18:08:35.498Z,2.75
2023-01-19T18:11:02.066Z,2.87
2023-01-19T18:13:28.496Z,0.95
2023-01-19T18:16:01.915Z,3.04
2023-01-19T18:18:28.647Z,1.01
2023-01-19T18:21:02.398Z,2.89
2023-01-19T18:23:28.898Z,2.98
2023-01-19T18:26:06.485Z,2.56
2023-01-19T18:28:33.113Z,3.05
2023-01-19T18:30:59.857Z,2.99
2023-01-19T18:33:27.102Z,2.88
2023-01-19T18:35:53.727Z,2.72
2023-01-19T18:38:20.007Z,1.28
2023-01-19T18:40:46.146Z,2.87
2023-01-19T18:43:12.561Z,1.38
2023-01-19T18:45:41.061Z,2.92
2023-01-19T18:48:07.905Z,2.80
2023-01-19T18:50:34.019Z,1.23
2023-01-19T18:53:00.119Z,2.79
2023-01-19T18:55:26.271Z,2.69
2023-01-19T18:57:53.079Z,2.67
2023-01-19T19:00:19.555Z,2.79
2023-01-19T19:02:45.574Z,2.81
2023-01-19T19:05:11.605Z,2.65
2023-01-19T19:07:37.675Z,2.70
2023-01-19T19:10:04.922Z,2.26
2023-01-19T19:12:31.072Z,0.52
2023-01-19T19:14:57.159Z,2.41
2023-01-19T19:17:23.235Z,2.47
2023-01-19T19:19:49.326Z,2.64
2023-01-19T19:22:15.371Z,2.54
2023-01-19T19:24:41.407Z,2.62
2023-01-19T19:27:13.174Z,2.57
2023-01-19T19:29:43.292Z,2.25
2023-01-19T19:32:09.340Z,2.02
2023-01-19T19:34:35.408Z,2.44
2023-01-19T19:37:01.860Z,2.49
2023-01-19T19:39:28.243Z,2.53
2023-01-19T19:41:54.353Z,1.86
2023-01-19T19:44:20.406Z,2.30
2023-01-19T19:46:46.555Z,2.32
2023-01-19T19:49:12.720Z,1.08
2023-01-19T19:51:38.755Z,2.26
2023-01-19T19:54:04.825Z,2.19
2023-01-19T19:56:31.627Z,0.57
2023-01-19T19:58:58.703Z,2.17
2023-01-19T20:01:32.092Z,1.73
2023-01-19T20:04:04.823Z,2.13
2023-01-19T20:06:36.598Z,2.16
2023-01-19T20:09:05.603Z,1.79
2023-01-19T20:11:32.021Z,1.97
2023-01-19T20:13:58.097Z,2.03
2023-01-19T20:16:24.417Z,0.30
2023-01-19T20:18:53.280Z,1.73
2023-01-19T20:21:27.522Z,1.81
2023-01-19T20:23:55.113Z,1.68
2023-01-19T20:26:24.415Z,1.87
2023-01-19T20:28:51.025Z,1.77
2023-01-19T20:31:23.252Z,1.98
2023-01-19T20:33:50.381Z,0.49
2023-01-19T20:36:17.455Z,1.98
2023-01-19T20:38:44.065Z,1.95
2023-01-19T20:41:11.966Z,2.00
2023-01-19T20:43:38.342Z,1.74
2023-01-19T20:46:04.721Z,-5.31
2023-01-19T20:48:31.095Z,1.86
2023-01-19T20:51:04.185Z,1.88
2023-01-19T20:53:30.685Z,1.95
2023-01-19T20:55:57.166Z,0.12
2023-01-19T20:58:23.585Z,1.91
2023-01-19T21:00:50.211Z,1.93
2023-01-19T21:03:16.616Z,1.95
2023-01-19T21:05:46.579Z,1.94
2023-01-19T21:08:14.051Z,1.70
2023-01-19T21:10:40.750Z,0.04
2023-01-19T21:13:06.850Z,0.01
2023-01-19T21:15:32.908Z,1.62
2023-01-19T21:18:01.070Z,1.62
2023-01-19T21:20:30.906Z,1.54
2023-01-19T21:22:58.295Z,1.53
2023-01-19T21:25:24.536Z,0.25
2023-01-19T21:27:50.654Z,0.33
2023-01-19T21:30:17.805Z,0.89
2023-01-19T21:32:43.908Z,0.89
2023-01-19T21:35:09.984Z,0.97
2023-01-19T21:37:36.057Z,1.33
2023-01-19T21:40:02.607Z,1.37
2023-01-19T21:42:28.678Z,1.34
2023-01-19T21:44:54.727Z,1.25
2023-01-19T21:47:20.860Z,1.17
2023-01-19T21:49:46.907Z,1.28
2023-01-19T21:52:13.014Z,1.17
2023-01-19T21:54:39.148Z,1.09
2023-01-19T21:57:05.289Z,-1.01
2023-01-19T21:59:31.355Z,-0.09
2023-01-19T22:01:57.733Z,1.06
2023-01-19T22:04:23.911Z,1.20
2023-01-19T22:06:49.992Z,0.62
2023-01-19T22:09:16.031Z,1.05
2023-01-19T22:11:42.165Z,1.09
2023-01-19T22:14:08.260Z,1.06
2023-01-19T22:16:34.354Z,1.04
2023-01-19T22:19:01.459Z,0.97
2023-01-19T22:21:30.515Z,-0.63
2023-01-19T22:24:01.259Z,0.90
2023-01-19T22:26:29.437Z,1.06
2023-01-19T22:28:58.307Z,1.06
2023-01-19T22:31:25.798Z,1.12
2023-01-19T22:33:52.529Z,1.15
2023-01-19T22:36:21.075Z,1.20
2023-01-19T22:38:52.298Z,1.20
2023-01-19T22:41:22.408Z,1.10
2023-01-19T22:43:50.206Z,-0.29
2023-01-19T22:46:18.361Z,0.63
2023-01-19T22:48:44.989Z,0.39
2023-01-19T22:51:11.173Z,1.11
2023-01-19T22:53:37.436Z,0.56
2023-01-19T22:56:14.948Z,1.08
2023-01-19T22:58:45.640Z,0.44
2023-01-19T23:01:13.564Z,1.19
2023-01-19T23:03:39.984Z,1.27
2023-01-19T23:06:11.271Z,1.27
2023-01-19T23:08:37.655Z,1.03
2023-01-19T23:11:08.362Z,1.06
2023-01-19T23:13:34.502Z,0.77
2023-01-19T23:16:19.189Z,0.61
2023-01-19T23:18:45.869Z,1.07
2023-01-19T23:21:14.897Z,1.18
2023-01-19T23:23:41.640Z,1.18
2023-01-19T23:26:16.208Z,-1.19
2023-01-19T23:28:43.130Z,1.17
2023-01-19T23:31:23.609Z,1.13
2023-01-19T23:33:51.392Z,-0.66
2023-01-19T23:36:18.356Z,0.93
2023-01-19T23:38:49.584Z,0.22
2023-01-19T23:41:15.909Z,0.63
2023-01-19T23:43:42.041Z,0.88
2023-01-19T23:46:09.766Z,0.94
2023-01-19T23:48:36.613Z,0.12
2023-01-19T23:51:07.801Z,-0.31
2023-01-19T23:53:34.787Z,0.07
2023-01-19T23:56:10.014Z,0.79
2023-01-19T23:58:36.285Z,-1.35
